Time;durP1;ratioP1;P1;durP2;ratioP2;P2;SDS_P1;SDS_P2;PMS_P1;PMS_P2;Temp;Humidity;BMP_temperature;BMP_pressure;BME280_temperature;BME280_humidity;BME280_pressure;Samples;Min_cycle;Max_cycle;Signal;HPM_P1;HPM_P2
2021/04/13 00:02:41;;;;;;;15.63;9.18;;;1.30;1.00;;;;;;5095084;28;20182;-69
2021/04/13 00:05:08;;;;;;;11.82;9.20;;;1.40;1.00;;;;;;5083994;28;20183;-68
2021/04/13 00:07:36;;;;;;;13.18;10.07;;;1.20;1.00;;;;;;5094729;28;20229;-68
2021/04/13 00:10:15;;;;;;;15.90;10.18;;;1.30;1.00;;;;;;5094935;28;20251;-69
2021/04/13 00:12:41;;;;;;;13.23;9.65;;;1.30;1.00;;;;;;5094750;28;20281;-68
2021/04/13 00:15:09;;;;;;;13.10;9.98;;;1.20;1.00;;;;;;5094801;28;20160;-69
2021/04/13 00:17:35;;;;;;;13.80;9.68;;;1.30;1.00;;;;;;5094747;28;20213;-69
2021/04/13 00:20:00;;;;;;;14.53;10.00;;;1.40;99.90;;;;;;5094718;28;20173;-69
2021/04/13 00:22:27;;;;;;;13.13;10.37;;;1.40;99.90;;;;;;5094601;28;20236;-69
2021/04/13 00:24:53;;;;;;;15.02;10.20;;;1.30;99.90;;;;;;5095420;28;20171;-69
2021/04/13 00:27:23;;;;;;;14.60;10.48;;;1.50;99.90;;;;;;5094895;28;20199;-68
2021/04/13 00:29:49;;;;;;;12.18;9.13;;;1.40;99.90;;;;;;5094459;28;20167;-68
2021/04/13 00:32:20;;;;;;;13.95;9.35;;;1.40;99.90;;;;;;5094439;28;20170;-69
2021/04/13 00:34:53;;;;;;;12.77;9.32;;;1.40;99.90;;;;;;5094355;28;20208;-69
2021/04/13 00:37:27;;;;;;;15.05;10.40;;;1.30;99.90;;;;;;5094680;28;20171;-68
2021/04/13 00:40:27;;;;;;;16.65;10.65;;;1.50;99.90;;;;;;5094651;28;20163;-69
2021/04/13 00:42:59;;;;;;;14.40;9.35;;;1.40;99.90;;;;;;5094251;28;20191;-68
2021/04/13 00:45:30;;;;;;;18.15;10.65;;;1.30;99.90;;;;;;5094471;28;20164;-68
2021/04/13 00:47:57;;;;;;;13.57;8.88;;;1.30;99.90;;;;;;5094406;28;20533;-68
2021/04/13 00:50:35;;;;;;;11.57;9.50;;;1.20;99.90;;;;;;5094079;28;20659;-68
2021/04/13 00:53:05;;;;;;;12.27;10.43;;;1.10;99.90;;;;;;5094293;28;20573;-69
2021/04/13 00:55:40;;;;;;;11.63;8.75;;;1.00;99.90;;;;;;5093986;28;20164;-69
2021/04/13 00:58:31;;;;;;;12.68;9.25;;;0.90;99.90;;;;;;5094233;28;20166;-68
2021/04/13 01:01:01;;;;;;;14.70;10.63;;;0.90;1.00;;;;;;5084997;28;20179;-69
2021/04/13 01:03:30;;;;;;;18.25;10.07;;;1.10;99.90;;;;;;5093468;28;20196;-69
2021/04/13 01:05:58;;;;;;;15.10;9.70;;;1.10;99.90;;;;;;5094650;28;20176;-68
2021/04/13 01:08:33;;;;;;;12.05;9.85;;;1.30;99.90;;;;;;5094040;28;20683;-68
2021/04/13 01:11:10;;;;;;;16.50;11.25;;;1.20;99.90;;;;;;5093953;28;20162;-69
2021/04/13 01:13:38;;;;;;;14.68;11.65;;;1.30;99.90;;;;;;5093677;28;20212;-68
2021/04/13 01:16:05;;;;;;;13.52;10.45;;;1.30;99.90;;;;;;5094714;28;20304;-68
2021/04/13 01:18:35;;;;;;;15.05;10.93;;;1.00;99.90;;;;;;5093628;28;20178;-69
2021/04/13 01:21:06;;;;;;;16.65;11.60;;;1.10;99.90;;;;;;5094317;28;20246;-69
2021/04/13 01:24:05;;;;;;;16.17;11.70;;;1.10;99.90;;;;;;5093726;28;20191;-69
2021/04/13 01:26:23;;;;;;;19.10;12.63;;;1.00;99.90;;;;;;5093137;28;20187;-68
2021/04/13 01:28:51;;;;;;;21.63;12.88;;;1.20;99.90;;;;;;5093214;28;20294;-69
2021/04/13 01:34:08;;;;;;;18.08;11.65;;;1.20;99.90;;;;;;5093385;28;20194;-68
2021/04/13 01:36:36;;;;;;;21.33;13.10;;;1.10;99.90;;;;;;5093542;28;20171;-69
2021/04/13 01:39:09;;;;;;;17.50;11.55;;;1.00;99.90;;;;;;5093541;28;20594;-68
2021/04/13 01:41:56;;;;;;;22.20;15.23;;;1.00;99.90;;;;;;5094430;28;20608;-68
2021/04/13 01:44:45;;;;;;;21.75;13.63;;;1.00;99.90;;;;;;5093222;28;20218;-68
2021/04/13 01:47:13;;;;;;;20.75;13.57;;;0.90;99.90;;;;;;5053783;28;20194;-68
2021/04/13 01:49:51;;;;;;;19.98;13.63;;;0.90;99.90;;;;;;5093391;28;20184;-68
2021/04/13 01:52:30;;;;;;;19.50;13.45;;;0.80;99.90;;;;;;5093394;28;20208;-68
2021/04/13 01:55:04;;;;;;;23.38;14.80;;;0.80;99.90;;;;;;5093144;28;20230;-68
2021/04/13 01:57:34;;;;;;;22.30;13.63;;;0.80;99.90;;;;;;5093924;28;20510;-69
2021/04/13 02:00:55;;;;;;;19.05;11.90;;;0.80;99.90;;;;;;5093554;28;20172;-68
2021/04/13 02:03:37;;;;;;;22.92;14.07;;;0.70;99.90;;;;;;5066656;28;20287;-68
2021/04/13 02:06:13;;;;;;;22.23;13.15;;;0.60;99.90;;;;;;5093062;28;20159;-68
2021/04/13 02:09:05;;;;;;;22.42;14.30;;;0.50;99.90;;;;;;5092899;28;20235;-68
2021/04/13 02:11:34;;;;;;;21.30;14.93;;;0.50;1.00;;;;;;5093258;28;20156;-68
2021/04/13 02:14:08;;;;;;;25.58;15.35;;;0.60;1.00;;;;;;5096016;28;20202;-68
2021/04/13 02:16:44;;;;;;;23.60;14.82;;;0.90;1.00;;;;;;5097236;28;20618;-68
2021/04/13 02:19:11;;;;;;;29.20;17.45;;;0.70;99.90;;;;;;5097421;28;20156;-68
2021/04/13 02:21:39;;;;;;;19.48;13.73;;;0.60;99.90;;;;;;5097278;28;20160;-68
2021/04/13 02:24:10;;;;;;;20.00;14.80;;;1.10;1.00;;;;;;5096970;28;20675;-68
2021/04/13 02:26:57;;;;;;;23.70;14.18;;;1.00;99.90;;;;;;5097242;28;20545;-68
2021/04/13 02:29:29;;;;;;;20.08;14.40;;;1.00;99.90;;;;;;5097156;28;20492;-68
2021/04/13 02:31:59;;;;;;;25.33;16.02;;;0.90;99.90;;;;;;5097208;28;20183;-67
2021/04/13 02:34:28;;;;;;;21.85;14.40;;;0.90;99.90;;;;;;5096812;28;20183;-68
2021/04/13 02:36:57;;;;;;;22.35;14.60;;;0.90;99.90;;;;;;5097064;28;20250;-68
2021/04/13 02:39:26;;;;;;;20.55;13.82;;;0.90;99.90;;;;;;5096856;28;20176;-68
2021/04/13 02:42:05;;;;;;;20.13;13.15;;;0.60;99.90;;;;;;5096836;28;20174;-68
2021/04/13 02:44:31;;;;;;;17.48;12.23;;;0.50;99.90;;;;;;5096604;28;20274;-68
2021/04/13 02:47:01;;;;;;;24.20;15.87;;;0.60;99.90;;;;;;5096628;28;20246;-68
2021/04/13 02:49:29;;;;;;;19.55;12.60;;;0.80;99.90;;;;;;5096878;28;20365;-68
2021/04/13 02:52:00;;;;;;;23.50;13.55;;;0.70;99.90;;;;;;5096772;28;20255;-68
2021/04/13 02:54:35;;;;;;;19.20;13.15;;;0.60;99.90;;;;;;5096721;28;20286;-68
2021/04/13 02:57:05;;;;;;;18.85;13.20;;;0.50;99.90;;;;;;5096333;28;20175;-68
2021/04/13 02:59:34;;;;;;;19.98;13.07;;;0.50;99.90;;;;;;5096668;28;20179;-68
2021/04/13 03:02:09;;;;;;;21.65;14.65;;;0.40;99.90;;;;;;5096446;28;20175;-68
2021/04/13 03:04:42;;;;;;;20.42;13.98;;;0.40;99.90;;;;;;5095049;28;20190;-68
2021/04/13 03:07:13;;;;;;;21.95;14.57;;;0.30;99.90;;;;;;5096220;28;20176;-68
2021/04/13 03:09:39;;;;;;;26.23;15.75;;;0.40;99.90;;;;;;5096436;28;20148;-69
2021/04/13 03:12:08;;;;;;;24.27;15.10;;;0.60;99.90;;;;;;5096121;28;20532;-68
2021/04/13 03:14:36;;;;;;;34.75;15.57;;;0.60;99.90;;;;;;5095973;28;20660;-68
2021/04/13 03:17:12;;;;;;;20.35;13.55;;;0.60;99.90;;;;;;5095957;28;20575;-68
2021/04/13 03:19:39;;;;;;;24.73;15.85;;;0.70;99.90;;;;;;5096482;28;20644;-68
2021/04/13 03:22:06;;;;;;;27.27;16.40;;;0.80;99.90;;;;;;5095916;28;20195;-68
2021/04/13 03:24:41;;;;;;;24.35;16.45;;;0.70;99.90;;;;;;5095074;28;20237;-68
2021/04/13 03:27:12;;;;;;;22.52;14.98;;;0.60;99.90;;;;;;5095642;28;20148;-68
2021/04/13 03:29:55;;;;;;;24.15;15.73;;;0.50;99.90;;;;;;5096029;28;20163;-68
2021/04/13 03:32:23;;;;;;;24.92;15.85;;;0.60;99.90;;;;;;5095607;28;20517;-68
2021/04/13 03:34:50;;;;;;;27.30;16.20;;;0.50;99.90;;;;;;5095662;28;20174;-68
2021/04/13 03:37:17;;;;;;;25.77;15.52;;;0.60;99.90;;;;;;5095365;28;20175;-68
2021/04/13 03:39:45;;;;;;;24.80;16.63;;;0.40;99.90;;;;;;5095529;28;20675;-68
2021/04/13 03:42:15;;;;;;;22.88;14.50;;;0.30;99.90;;;;;;5095792;28;20178;-68
2021/04/13 03:44:41;;;;;;;26.63;15.80;;;0.20;99.90;;;;;;5095737;28;20219;-69
2021/04/13 03:47:13;;;;;;;22.65;15.65;;;0.60;99.90;;;;;;5095574;28;20258;-68
2021/04/13 03:49:41;;;;;;;30.52;16.13;;;0.40;99.90;;;;;;5095585;28;20167;-68
2021/04/13 03:52:14;;;;;;;26.88;16.48;;;0.50;99.90;;;;;;5095387;28;20694;-68
2021/04/13 03:54:40;;;;;;;23.10;14.75;;;0.50;99.90;;;;;;5095875;28;20180;-68
2021/04/13 03:57:07;;;;;;;25.20;16.43;;;0.30;99.90;;;;;;5095553;28;20548;-68
2021/04/13 03:59:40;;;;;;;27.33;16.38;;;0.30;99.90;;;;;;5095399;28;20433;-68
2021/04/13 04:02:07;;;;;;;25.95;17.20;;;0.50;99.90;;;;;;5095469;28;20167;-68
2021/04/13 04:04:39;;;;;;;26.98;16.30;;;0.50;99.90;;;;;;5095326;28;20191;-68
2021/04/13 04:07:33;;;;;;;31.27;17.77;;;0.60;99.90;;;;;;5095051;28;20183;-68
2021/04/13 04:09:59;;;;;;;27.75;18.42;;;0.50;99.90;;;;;;5094917;28;20681;-68
2021/04/13 04:12:31;;;;;;;27.07;17.50;;;0.40;99.90;;;;;;5094846;28;20250;-68
2021/04/13 04:15:09;;;;;;;26.05;15.90;;;0.50;99.90;;;;;;5095214;28;20170;-67
2021/04/13 04:17:56;;;;;;;29.10;18.55;;;0.30;99.90;;;;;;5094840;28;20257;-69
2021/04/13 04:20:34;;;;;;;29.55;17.23;;;0.30;99.90;;;;;;5094627;28;20183;-68
2021/04/13 04:23:01;;;;;;;33.08;18.70;;;0.10;99.90;;;;;;5095019;28;20222;-68
2021/04/13 04:25:34;;;;;;;27.55;17.33;;;0.10;99.90;;;;;;5094782;28;20199;-68
2021/04/13 04:28:06;;;;;;;30.40;17.38;;;0.10;99.90;;;;;;5094719;28;20186;-68
2021/04/13 04:30:34;;;;;;;26.48;17.08;;;0.20;99.90;;;;;;5094805;28;20502;-68
2021/04/13 04:33:03;;;;;;;28.17;17.70;;;0.10;99.90;;;;;;5094437;28;20206;-68
2021/04/13 04:35:37;;;;;;;29.52;18.30;;;0.20;99.90;;;;;;5094366;28;20171;-68
2021/04/13 04:38:02;;;;;;;27.98;19.25;;;0.10;99.90;;;;;;5093945;28;20247;-68
2021/04/13 04:40:28;;;;;;;29.60;20.70;;;0.00;99.90;;;;;;5094411;28;20509;-68
2021/04/13 04:43:00;;;;;;;33.43;19.30;;;0.00;99.90;;;;;;5094386;28;20188;-68
2021/04/13 04:45:32;;;;;;;27.52;18.35;;;0.00;99.90;;;;;;5094600;28;20644;-68
2021/04/13 04:47:58;;;;;;;31.67;18.95;;;0.10;99.90;;;;;;5094410;28;20219;-68
2021/04/13 04:50:24;;;;;;;33.42;18.58;;;0.20;99.90;;;;;;5094457;28;20190;-67
2021/04/13 04:52:49;;;;;;;27.93;18.87;;;0.20;99.90;;;;;;5094249;28;20731;-68
2021/04/13 04:55:15;;;;;;;32.47;19.57;;;0.30;99.90;;;;;;5094128;28;20168;-67
2021/04/13 04:57:42;;;;;;;29.52;18.67;;;0.30;99.90;;;;;;5094305;28;20186;-68
2021/04/13 05:00:09;;;;;;;35.47;21.48;;;0.20;99.90;;;;;;5093783;28;20179;-68
2021/04/13 05:02:35;;;;;;;35.00;20.05;;;0.20;99.90;;;;;;5093985;28;20232;-68
2021/04/13 05:05:02;;;;;;;35.30;21.37;;;0.20;99.90;;;;;;5094518;28;20167;-68
2021/04/13 05:07:28;;;;;;;27.48;18.50;;;0.30;99.90;;;;;;5093607;28;20622;-68
2021/04/13 05:09:53;;;;;;;34.10;19.93;;;0.30;99.90;;;;;;5094065;28;20167;-68
2021/04/13 05:12:19;;;;;;;30.13;18.60;;;0.70;99.90;;;;;;5093556;28;20637;-68
2021/04/13 05:14:44;;;;;;;29.70;19.00;;;0.90;99.90;;;;;;5093626;28;20224;-68
2021/04/13 05:17:10;;;;;;;29.70;19.27;;;0.80;99.90;;;;;;5093641;28;20175;-69
2021/04/13 05:19:35;;;;;;;32.93;19.37;;;1.00;99.90;;;;;;5093795;28;20171;-68
2021/04/13 05:22:01;;;;;;;36.80;19.57;;;0.70;99.90;;;;;;5093484;28;20167;-68
2021/04/13 05:24:27;;;;;;;35.20;19.63;;;0.80;99.90;;;;;;5093392;28;20557;-68
2021/04/13 05:26:52;;;;;;;28.23;17.87;;;1.20;99.90;;;;;;5093108;28;20168;-68
2021/04/13 05:29:18;;;;;;;29.10;18.50;;;1.20;99.90;;;;;;5093238;28;20189;-68
2021/04/13 05:31:43;;;;;;;34.40;20.40;;;0.80;99.90;;;;;;5093393;28;20250;-68
2021/04/13 05:34:10;;;;;;;31.87;20.53;;;0.90;99.90;;;;;;5093527;28;20256;-68
2021/04/13 05:36:37;;;;;;;32.53;20.67;;;1.30;99.90;;;;;;5093150;28;20167;-68
2021/04/13 05:39:04;;;;;;;34.40;21.20;;;1.50;99.90;;;;;;5093474;28;20167;-67
2021/04/13 05:41:31;;;;;;;29.50;18.48;;;1.40;99.90;;;;;;5092952;28;20172;-68
2021/04/13 05:43:57;;;;;;;29.77;19.27;;;1.50;99.90;;;;;;5093285;28;20304;-68
2021/04/13 05:46:26;;;;;;;36.43;21.20;;;1.20;99.90;;;;;;5093017;28;20171;-68
2021/04/13 05:48:52;;;;;;;34.30;20.48;;;1.10;99.90;;;;;;5092092;28;20681;-68
2021/04/13 05:51:19;;;;;;;34.25;20.67;;;1.10;99.90;;;;;;5093032;28;20254;-68
2021/04/13 05:53:45;;;;;;;29.23;20.10;;;1.40;99.90;;;;;;5092493;28;20229;-69
2021/04/13 05:56:22;;;;;;;38.70;23.00;;;1.30;99.90;;;;;;5092755;28;20655;-69
2021/04/13 05:58:49;;;;;;;33.30;20.50;;;1.20;99.90;;;;;;5092668;28;20643;-69
2021/04/13 06:01:19;;;;;;;38.35;22.52;;;1.40;99.90;;;;;;5093107;28;20178;-68
2021/04/13 06:03:45;;;;;;;34.13;20.00;;;1.50;99.90;;;;;;5092625;28;20198;-68
2021/04/13 06:06:13;;;;;;;32.20;21.53;;;1.70;99.90;;;;;;5093258;28;20171;-68
2021/04/13 06:08:38;;;;;;;33.78;20.75;;;1.70;99.90;;;;;;5092846;28;20501;-68
2021/04/13 06:11:05;;;;;;;32.38;21.70;;;1.80;99.90;;;;;;5092354;28;20237;-67
2021/04/13 06:13:30;;;;;;;33.72;22.90;;;2.00;99.90;;;;;;5092192;28;20187;-67
2021/04/13 06:15:56;;;;;;;35.73;20.30;;;2.00;99.90;;;;;;5092468;28;20227;-68
2021/04/13 06:18:23;;;;;;;34.17;21.70;;;2.10;99.90;;;;;;5092328;28;20246;-68
2021/04/13 06:20:49;;;;;;;38.22;23.52;;;2.10;99.90;;;;;;5093080;28;20274;-67
2021/04/13 06:23:15;;;;;;;37.53;20.80;;;2.50;99.90;;;;;;5092510;28;20222;-68
2021/04/13 06:25:41;;;;;;;32.47;21.58;;;2.70;99.90;;;;;;5092395;28;20591;-68
2021/04/13 06:28:07;;;;;;;32.83;21.20;;;2.90;59.80;;;;;;5092464;28;20199;-68
2021/04/13 06:30:33;;;;;;;29.33;19.33;;;3.00;15.20;;;;;;5092355;28;20380;-68
2021/04/13 06:33:00;;;;;;;34.70;21.27;;;3.10;7.50;;;;;;5092329;28;20564;-68
2021/04/13 06:35:26;;;;;;;36.28;22.02;;;3.20;3.20;;;;;;5092206;28;20409;-68
2021/04/13 06:37:56;;;;;;;32.63;19.58;;;3.20;1.00;;;;;;5092458;28;20532;-68
2021/04/13 06:40:43;;;;;;;31.05;19.23;;;3.30;1.00;;;;;;5092485;28;20184;-68
2021/04/13 06:43:45;;;;;;;35.30;21.77;;;3.40;1.00;;;;;;5092810;28;20198;-68
2021/04/13 06:46:33;;;;;;;33.03;20.85;;;3.40;1.00;;;;;;5092311;28;20237;-68
2021/04/13 06:49:13;;;;;;;27.88;19.00;;;3.40;1.00;;;;;;5093334;28;20191;-69
2021/04/13 06:52:14;;;;;;;35.22;19.52;;;3.50;1.00;;;;;;5092860;28;20663;-68
2021/04/13 06:54:53;;;;;;;36.05;22.38;;;3.70;1.00;;;;;;5060944;28;20683;-68
2021/04/13 06:57:32;;;;;;;40.15;20.95;;;3.80;1.00;;;;;;5092583;28;20160;-68
2021/04/13 07:00:21;;;;;;;31.95;21.13;;;3.80;1.00;;;;;;5093106;28;20163;-72
2021/04/13 07:03:32;;;;;;;26.75;19.42;;;4.00;1.00;;;;;;5095909;28;20187;-68
2021/04/13 07:06:09;;;;;;;35.67;20.58;;;3.80;1.00;;;;;;5091770;28;20183;-69
2021/04/13 07:08:35;;;;;;;31.40;22.15;;;4.10;1.00;;;;;;5095783;28;20203;-68
2021/04/13 07:11:16;;;;;;;45.73;26.43;;;4.10;1.00;;;;;;5096048;28;20182;-68
2021/04/13 07:14:07;;;;;;;38.40;22.42;;;4.00;1.00;;;;;;5094163;28;20692;-69
2021/04/13 07:16:40;;;;;;;28.88;18.98;;;4.10;1.00;;;;;;5095762;28;20174;-69
2021/04/13 07:19:16;;;;;;;31.10;20.10;;;3.60;1.00;;;;;;5095690;28;20159;-68
2021/04/13 07:21:49;;;;;;;30.33;20.13;;;3.60;1.00;;;;;;5095606;28;20208;-68
2021/04/13 07:24:24;;;;;;;33.78;19.17;;;3.40;1.00;;;;;;5095231;28;20278;-68
2021/04/13 07:27:11;;;;;;;32.90;19.25;;;3.90;1.00;;;;;;5095599;28;20290;-69
2021/04/13 07:29:43;;;;;;;28.88;16.40;;;4.10;1.00;;;;;;5095433;28;20289;-68
2021/04/13 07:32:22;;;;;;;34.88;19.20;;;4.30;1.00;;;;;;5095159;28;20209;-69
2021/04/13 07:34:54;;;;;;;32.45;19.20;;;4.30;1.00;;;;;;5095241;28;20660;-69
2021/04/13 07:37:37;;;;;;;26.60;17.20;;;4.40;1.00;;;;;;5095580;28;20182;-69
2021/04/13 07:40:16;;;;;;;27.33;17.58;;;4.40;1.00;;;;;;5095615;28;20192;-69
2021/04/13 07:42:49;;;;;;;27.65;18.05;;;4.60;1.00;;;;;;5094215;28;20195;-69
2021/04/13 07:45:51;;;;;;;23.73;15.38;;;4.70;1.00;;;;;;5093619;28;20178;-69
2021/04/13 07:48:19;;;;;;;29.23;17.55;;;4.50;1.00;;;;;;5095076;28;20622;-71
2021/04/13 07:50:56;;;;;;;24.02;16.63;;;4.70;1.00;;;;;;5094863;28;20532;-69
2021/04/13 07:53:54;;;;;;;30.70;17.63;;;4.90;1.00;;;;;;5094561;28;20187;-69
2021/04/13 07:56:25;;;;;;;25.85;17.15;;;4.90;1.00;;;;;;5066824;28;20180;-69
2021/04/13 07:59:19;;;;;;;23.85;14.43;;;5.10;1.00;;;;;;5094508;28;20183;-69
2021/04/13 08:01:46;;;;;;;26.65;16.63;;;4.70;1.00;;;;;;5094522;28;20228;-68
2021/04/13 08:04:17;;;;;;;24.40;15.05;;;4.90;1.00;;;;;;5094256;28;20187;-69
2021/04/13 08:06:48;;;;;;;24.10;15.13;;;4.60;1.00;;;;;;5093689;28;20160;-69
2021/04/13 08:09:25;;;;;;;21.67;14.88;;;4.20;1.00;;;;;;5094947;28;20585;-69
2021/04/13 08:12:22;;;;;;;22.20;13.90;;;4.40;1.00;;;;;;5094818;28;20273;-69
2021/04/13 08:14:47;;;;;;;24.40;14.45;;;4.10;1.00;;;;;;5092820;28;20213;-69
2021/04/13 08:17:17;;;;;;;20.60;13.67;;;4.20;1.00;;;;;;5094329;28;20160;-69
2021/04/13 08:19:45;;;;;;;18.08;12.98;;;4.40;1.00;;;;;;5095141;28;20155;-69
2021/04/13 08:22:17;;;;;;;24.13;13.48;;;4.50;1.00;;;;;;5094728;28;20212;-68
2021/04/13 08:24:44;;;;;;;22.70;13.85;;;4.90;1.00;;;;;;5094755;28;20198;-69
2021/04/13 08:27:31;;;;;;;24.45;13.57;;;5.10;1.00;;;;;;5094317;28;20172;-68
2021/04/13 08:30:22;;;;;;;27.23;14.63;;;5.10;1.00;;;;;;5094504;28;20171;-67
2021/04/13 08:33:01;;;;;;;17.90;12.27;;;5.70;1.00;;;;;;5094205;28;20653;-69
2021/04/13 08:35:57;;;;;;;17.90;12.85;;;6.30;1.00;;;;;;5093809;28;20171;-68
2021/04/13 08:38:32;;;;;;;25.25;13.07;;;5.20;1.00;;;;;;5091046;28;20183;-69
2021/04/13 08:41:16;;;;;;;17.80;12.27;;;5.60;1.00;;;;;;5094305;28;20620;-69
2021/04/13 08:43:51;;;;;;;25.00;12.88;;;5.70;1.00;;;;;;5093824;28;20240;-69
2021/04/13 08:46:47;;;;;;;21.02;14.40;;;6.10;1.00;;;;;;5092219;28;20171;-68
2021/04/13 08:49:32;;;;;;;20.63;12.15;;;6.20;1.00;;;;;;5093443;28;20191;-69
2021/04/13 08:52:23;;;;;;;18.08;11.82;;;6.70;1.00;;;;;;5094040;28;20649;-68
2021/04/13 08:54:59;;;;;;;22.27;11.30;;;6.20;1.00;;;;;;5093119;28;20527;-71
2021/04/13 08:57:33;;;;;;;20.75;11.55;;;6.40;1.00;;;;;;5093925;28;20154;-70
2021/04/13 09:00:04;;;;;;;20.20;11.43;;;6.30;1.00;;;;;;5093674;28;20148;-68
2021/04/13 09:02:35;;;;;;;20.73;11.77;;;6.70;1.00;;;;;;5093238;28;20242;-68
2021/04/13 09:05:20;;;;;;;21.75;12.90;;;6.40;1.00;;;;;;5091950;28;20538;-68
2021/04/13 09:07:46;;;;;;;20.65;12.68;;;6.10;1.00;;;;;;5093222;28;20206;-68
2021/04/13 09:10:30;;;;;;;22.63;13.23;;;6.70;1.00;;;;;;5093519;28;20502;-68
2021/04/13 09:13:10;;;;;;;14.50;10.57;;;6.90;1.00;;;;;;5093508;28;20190;-69
2021/04/13 09:15:57;;;;;;;20.30;11.73;;;7.40;1.00;;;;;;5093159;28;20238;-66
2021/04/13 09:18:50;;;;;;;17.50;9.90;;;7.50;1.00;;;;;;5093659;28;20258;-68
2021/04/13 09:21:27;;;;;;;17.60;9.50;;;7.10;1.00;;;;;;5089988;28;20184;-69
2021/04/13 09:24:08;;;;;;;13.98;9.63;;;6.80;1.00;;;;;;5092547;28;20194;-68
2021/04/13 09:26:53;;;;;;;18.13;8.88;;;7.40;1.00;;;;;;5093693;28;20152;-69
2021/04/13 09:29:44;;;;;;;19.80;9.18;;;6.80;1.00;;;;;;5093004;28;20266;-72
2021/04/13 09:32:30;;;;;;;18.02;9.15;;;7.30;1.00;;;;;;5093653;28;20156;-70
2021/04/13 09:35:14;;;;;;;18.95;10.68;;;7.90;1.00;;;;;;5093280;28;20599;-69
2021/04/13 09:38:07;;;;;;;16.23;9.55;;;8.70;1.00;;;;;;5093328;28;20159;-69
2021/04/13 09:40:37;;;;;;;16.90;10.15;;;8.80;1.00;;;;;;5093436;28;20315;-70
2021/04/13 09:43:40;;;;;;;12.38;8.00;;;8.20;1.00;;;;;;5093265;28;20258;-70
2021/04/13 09:46:23;;;;;;;12.63;6.63;;;7.90;1.00;;;;;;5091404;28;20175;-68
2021/04/13 09:49:07;;;;;;;11.70;6.57;;;9.50;1.00;;;;;;5092147;28;20190;-69
2021/04/13 09:52:06;;;;;;;12.35;4.68;;;9.80;1.00;;;;;;5093094;28;20559;-68
2021/04/13 09:54:42;;;;;;;20.73;6.68;;;8.20;1.00;;;;;;5093180;28;20184;-68
2021/04/13 09:57:26;;;;;;;9.23;5.78;;;7.90;1.00;;;;;;5092740;28;20167;-68
2021/04/13 10:00:25;;;;;;;13.35;5.88;;;7.70;1.00;;;;;;5093557;28;20156;-68
2021/04/13 10:03:12;;;;;;;18.65;6.07;;;8.50;1.00;;;;;;5092691;28;20198;-68
2021/04/13 10:05:41;;;;;;;18.20;6.50;;;7.40;1.00;;;;;;5092661;28;20159;-68
2021/04/13 10:08:18;;;;;;;10.95;4.65;;;7.50;1.00;;;;;;5092462;28;20217;-68
2021/04/13 10:11:09;;;;;;;11.18;4.60;;;7.30;1.00;;;;;;5093600;28;20558;-69
2021/04/13 10:13:40;;;;;;;14.07;4.47;;;8.10;1.00;;;;;;5092979;28;20234;-69
2021/04/13 10:16:27;;;;;;;7.80;2.90;;;8.50;1.00;;;;;;5093130;28;20167;-69
2021/04/13 10:19:17;;;;;;;8.38;2.60;;;8.90;1.00;;;;;;5078917;28;20191;-69
2021/04/13 10:21:52;;;;;;;13.18;3.50;;;9.40;1.00;;;;;;5092575;28;20170;-69
2021/04/13 10:24:41;;;;;;;5.47;2.78;;;10.10;1.00;;;;;;5092737;28;20644;-69
2021/04/13 10:27:44;;;;;;;12.87;3.60;;;10.50;1.00;;;;;;5093133;28;20343;-69
2021/04/13 10:30:52;;;;;;;7.95;3.33;;;10.80;1.00;;;;;;5092499;28;20420;-69
2021/04/13 10:33:36;;;;;;;5.47;3.37;;;10.10;99.90;;;;;;5093102;28;20585;-69
2021/04/13 10:36:22;;;;;;;11.93;4.43;;;9.90;1.00;;;;;;5095492;28;20436;-69
2021/04/13 10:39:21;;;;;;;6.93;3.83;;;10.00;99.90;;;;;;5096363;28;20441;-69
2021/04/13 10:42:27;;;;;;;11.47;3.33;;;11.20;99.90;;;;;;5095823;28;20409;-70
2021/04/13 10:45:13;;;;;;;7.07;4.03;;;10.90;99.90;;;;;;5096183;28;20389;-70
2021/04/13 10:47:45;;;;;;;9.07;4.07;;;11.10;99.90;;;;;;5096591;28;20459;-69
2021/04/13 10:50:34;;;;;;;9.43;3.77;;;11.50;99.90;;;;;;5096292;28;20382;-70
2021/04/13 10:53:24;;;;;;;6.40;3.57;;;10.40;99.90;;;;;;5096220;28;20815;-68
2021/04/13 10:56:18;;;;;;;9.13;3.50;;;9.40;99.90;;;;;;5095951;28;20883;-69
2021/04/13 10:59:27;;;;;;;9.40;3.57;;;9.50;99.90;;;;;;5096069;28;20403;-68
2021/04/13 11:02:04;;;;;;;7.77;3.47;;;9.90;99.90;;;;;;5094976;28;20406;-69
2021/04/13 11:04:52;;;;;;;9.40;3.73;;;9.00;99.90;;;;;;5096398;28;20513;-69
2021/04/13 11:07:36;;;;;;;5.60;3.30;;;8.70;99.90;;;;;;5096577;28;20417;-69
2021/04/13 11:10:31;;;;;;;10.05;4.25;;;8.30;99.90;;;;;;5096021;28;20534;-68
2021/04/13 11:13:15;;;;;;;15.55;8.65;;;8.80;99.90;;;;;;5096105;28;20213;-68
2021/04/13 11:16:06;;;;;;;8.38;4.90;;;9.20;99.90;;;;;;5095650;28;20166;-68
2021/04/13 11:18:58;;;;;;;10.53;5.37;;;9.70;99.90;;;;;;5095853;28;20520;-67
2021/04/13 11:21:24;;;;;;;9.77;4.03;;;8.50;99.90;;;;;;5095872;28;20378;-68
2021/04/13 11:24:01;;;;;;;5.10;3.10;;;8.20;99.90;;;;;;5095769;28;20287;-70
2021/04/13 11:27:09;;;;;;;8.95;3.85;;;8.30;99.90;;;;;;5095788;28;20183;-69
2021/04/13 11:30:12;;;;;;;2.80;1.80;;;8.70;99.90;;;;;;5095365;28;20210;-69
2021/04/13 11:33:00;;;;;;;5.43;1.95;;;8.30;99.90;;;;;;5095923;28;20174;-68
2021/04/13 11:35:35;;;;;;;8.40;2.45;;;7.90;99.90;;;;;;5085367;28;20266;-69
2021/04/13 11:38:49;;;;;;;17.95;2.40;;;7.90;99.90;;;;;;5095800;28;20147;-69
2021/04/13 11:41:39;;;;;;;6.90;1.30;;;8.30;99.90;;;;;;5096178;28;20228;-69
2021/04/13 11:44:21;;;;;;;5.43;1.80;;;8.20;99.90;;;;;;5095096;28;20192;-69
2021/04/13 11:46:46;;;;;;;2.90;1.80;;;7.90;99.90;;;;;;5094553;28;20175;-69
2021/04/13 11:49:18;;;;;;;10.40;2.20;;;8.10;99.90;;;;;;5094965;28;20278;-69
2021/04/13 11:51:51;;;;;;;5.68;2.53;;;8.00;99.90;;;;;;5095062;28;20494;-69
2021/04/13 11:54:52;;;;;;;6.38;2.88;;;8.00;99.90;;;;;;5095194;28;20664;-70
2021/04/13 11:58:01;;;;;;;4.80;3.67;;;8.10;99.90;;;;;;5095556;28;20147;-71
2021/04/13 12:00:28;;;;;;;7.20;3.00;;;8.80;99.90;;;;;;5073664;28;20183;-68
2021/04/13 12:03:04;;;;;;;3.20;2.42;;;10.00;99.90;;;;;;5094105;28;20199;-68
2021/04/13 12:05:32;;;;;;;8.45;3.00;;;11.00;99.90;;;;;;5094578;28;20280;-68
2021/04/13 12:08:02;;;;;;;5.20;3.30;;;11.80;99.90;;;;;;5094800;28;20200;-69
2021/04/13 12:10:30;;;;;;;4.77;2.30;;;11.60;99.90;;;;;;5095637;28;20386;-69
2021/04/13 12:13:05;;;;;;;5.07;2.87;;;10.80;99.90;;;;;;5094480;28;20597;-69
2021/04/13 12:15:30;;;;;;;7.50;1.83;;;10.70;99.90;;;;;;5093317;28;20913;-68
2021/04/13 12:18:16;;;;;;;2.77;1.33;;;11.20;99.90;;;;;;5094556;28;20430;-68
2021/04/13 12:20:42;;;;;;;6.93;4.07;;;10.70;99.90;;;;;;5094831;28;20166;-69
2021/04/13 12:23:11;;;;;;;6.47;2.63;;;10.40;99.90;;;;;;5095047;28;20914;-69
2021/04/13 12:25:45;;;;;;;5.63;3.80;;;11.00;99.90;;;;;;5094570;28;20417;-68
2021/04/13 12:28:13;;;;;;;4.20;1.97;;;11.00;99.90;;;;;;5095196;28;20481;-69
2021/04/13 12:30:41;;;;;;;2.40;1.30;;;10.90;99.90;;;;;;5094089;28;20478;-68
2021/04/13 12:33:08;;;;;;;3.30;1.50;;;9.80;99.90;;;;;;5094272;28;20438;-68
2021/04/13 12:35:46;;;;;;;3.23;1.90;;;9.20;99.90;;;;;;5094049;28;20413;-68
2021/04/13 12:38:43;;;;;;;3.20;1.50;;;9.30;99.90;;;;;;5094241;28;20414;-69
2021/04/13 12:41:29;;;;;;;6.93;1.57;;;9.30;99.90;;;;;;5093071;28;20409;-69
2021/04/13 12:44:13;;;;;;;3.97;1.77;;;9.30;1.00;;;;;;5094397;28;20785;-69
2021/04/13 12:46:40;;;;;;;9.37;2.73;;;9.40;99.90;;;;;;5094264;28;20439;-68
2021/04/13 12:49:35;;;;;;;3.63;2.17;;;9.50;99.90;;;;;;5093763;28;20569;-68
2021/04/13 12:52:05;;;;;;;5.97;2.40;;;9.70;99.90;;;;;;5092260;28;20431;-69
2021/04/13 12:54:42;;;;;;;4.67;2.13;;;9.70;1.00;;;;;;5093971;28;20432;-69
2021/04/13 12:57:12;;;;;;;2.60;2.20;;;9.80;1.00;;;;;;5092894;28;20393;-70
2021/04/13 12:59:38;;;;;;;3.10;2.03;;;10.20;1.00;;;;;;5093748;28;20416;-69
2021/04/13 13:02:08;;;;;;;7.80;3.23;;;11.10;1.00;;;;;;5093055;28;20797;-69
2021/04/13 13:04:39;;;;;;;5.40;2.00;;;11.10;1.00;;;;;;5093541;28;20520;-69
2021/04/13 13:07:08;;;;;;;4.37;2.00;;;12.20;99.90;;;;;;5092847;28;20433;-70
2021/04/13 13:09:40;;;;;;;9.43;1.43;;;12.30;99.90;;;;;;5093221;28;20555;-69
2021/04/13 13:12:25;;;;;;;3.10;1.80;;;12.80;99.90;;;;;;5093283;28;20374;-70
2021/04/13 13:15:15;;;;;;;6.30;2.27;;;12.70;99.90;;;;;;5093525;28;20427;-70
2021/04/13 13:17:44;;;;;;;4.03;1.80;;;12.60;99.90;;;;;;5093431;28;20382;-69
2021/04/13 13:20:31;;;;;;;10.43;1.50;;;11.30;99.90;;;;;;5093290;28;20404;-68
2021/04/13 13:22:56;;;;;;;5.03;1.77;;;11.70;99.90;;;;;;5093360;28;20782;-69
2021/04/13 13:25:31;;;;;;;3.10;1.07;;;11.30;99.90;;;;;;5092632;28;20401;-69
2021/04/13 13:28:05;;;;;;;4.57;1.40;;;10.60;99.90;;;;;;5093165;28;20187;-68
2021/04/13 13:30:30;;;;;;;3.53;1.43;;;10.50;99.90;;;;;;5093509;28;20398;-71
2021/04/13 13:32:57;;;;;;;4.50;1.23;;;10.60;99.90;;;;;;5093248;28;20429;-68
2021/04/13 13:35:23;;;;;;;3.80;1.27;;;10.90;99.90;;;;;;5092876;28;20242;-69